Time;durP1;ratioP1;P1;durP2;ratioP2;P2;SDS_P1;SDS_P2;PMS_P1;PMS_P2;Temp;Humidity;BMP_temperature;BMP_pressure;BME280_temperature;BME280_humidity;BME280_pressure;Samples;Min_cycle;Max_cycle;Signal;HPM_P1;HPM_P2
2021/08/03 00:01:15;;;;;;;3.43;2.60;;;;;;;12.61;100.00;100576.50;5015891;28;20680;-74
2021/08/03 00:03:50;;;;;;;3.33;2.93;;;;;;;12.62;100.00;100575.63;5015408;28;20257;-74
2021/08/03 00:06:17;;;;;;;4.30;3.20;;;;;;;12.52;100.00;100572.47;5018532;28;20748;-74
2021/08/03 00:08:49;;;;;;;3.87;3.20;;;;;;;12.48;100.00;100576.09;5020789;28;20208;-74
2021/08/03 00:11:16;;;;;;;3.47;2.80;;;;;;;12.54;100.00;100575.91;5017834;28;20711;-74
2021/08/03 00:13:44;;;;;;;3.57;3.00;;;;;;;12.55;100.00;100582.81;5021629;28;20688;-74
2021/08/03 00:16:12;;;;;;;3.63;2.43;;;;;;;12.50;100.00;100577.78;5016031;28;20932;-74
2021/08/03 00:18:39;;;;;;;4.07;3.03;;;;;;;12.51;100.00;100581.22;5023249;28;20203;-74
2021/08/03 00:21:07;;;;;;;3.63;2.97;;;;;;;12.43;100.00;100586.72;5021452;28;20208;-74
2021/08/03 00:23:33;;;;;;;4.33;3.13;;;;;;;12.36;100.00;100587.81;5019273;28;20262;-74
2021/08/03 00:26:00;;;;;;;4.60;3.30;;;;;;;12.35;100.00;100588.75;5023260;28;20224;-73
2021/08/03 00:28:26;;;;;;;4.23;3.27;;;;;;;12.25;100.00;100582.97;5026154;28;20286;-73
2021/08/03 00:30:56;;;;;;;4.03;3.17;;;;;;;12.35;100.00;100583.53;5021049;28;20297;-72
2021/08/03 00:33:23;;;;;;;3.77;3.10;;;;;;;12.21;100.00;100573.53;5023946;28;20554;-73
2021/08/03 00:35:52;;;;;;;4.23;2.97;;;;;;;12.19;100.00;100582.31;5017542;28;20216;-73
2021/08/03 00:38:20;;;;;;;4.17;3.10;;;;;;;12.16;100.00;100579.81;5024406;28;20242;-74
2021/08/03 00:40:54;;;;;;;4.43;3.23;;;;;;;12.02;100.00;100585.50;5024399;28;20216;-74
2021/08/03 00:43:22;;;;;;;3.87;3.03;;;;;;;12.17;100.00;100581.50;5021833;28;20314;-74
2021/08/03 00:45:50;;;;;;;4.20;2.97;;;;;;;12.01;100.00;100586.41;5018352;28;20200;-74
2021/08/03 00:48:18;;;;;;;4.50;3.40;;;;;;;11.99;100.00;100588.22;5020985;28;20306;-74
2021/08/03 00:50:46;;;;;;;4.30;3.30;;;;;;;12.01;100.00;100591.63;5021132;28;20197;-74
2021/08/03 00:53:15;;;;;;;4.17;3.00;;;;;;;11.97;100.00;100597.84;5022338;28;20220;-73
2021/08/03 00:55:43;;;;;;;3.83;2.97;;;;;;;11.82;100.00;100594.81;5020162;28;20204;-74
2021/08/03 00:58:11;;;;;;;4.73;3.50;;;;;;;12.03;100.00;100595.03;5018511;28;20205;-74
2021/08/03 01:00:38;;;;;;;3.67;3.00;;;;;;;11.91;100.00;100596.31;5009899;28;20204;-74
2021/08/03 01:03:07;;;;;;;4.27;3.10;;;;;;;11.98;100.00;100589.97;5008007;28;20818;-73
2021/08/03 01:05:41;;;;;;;3.80;3.17;;;;;;;11.93;100.00;100591.88;5003483;28;20207;-74
2021/08/03 01:08:16;;;;;;;5.17;2.93;;;;;;;11.75;100.00;100593.28;5003981;28;20207;-74
2021/08/03 01:10:50;;;;;;;3.80;3.00;;;;;;;11.86;100.00;100588.56;5023651;28;20206;-73
2021/08/03 01:13:27;;;;;;;4.10;3.07;;;;;;;11.73;100.00;100592.47;5021956;28;20219;-73
2021/08/03 01:15:56;;;;;;;5.37;3.03;;;;;;;11.88;100.00;100584.16;5006218;28;20227;-74
2021/08/03 01:18:32;;;;;;;3.63;2.90;;;;;;;11.90;100.00;100586.72;5000759;28;20215;-73
2021/08/03 01:21:40;;;;;;;5.20;3.43;;;;;;;11.96;100.00;100585.69;5021590;28;20243;-74
2021/08/03 01:24:46;;;;;;;4.50;3.57;;;;;;;12.01;100.00;100583.78;4994107;28;20211;-74
2021/08/03 01:27:33;;;;;;;4.73;3.20;;;;;;;11.90;100.00;100586.72;5023963;28;20651;-74
2021/08/03 01:30:01;;;;;;;3.53;3.00;;;;;;;11.74;100.00;100594.19;5019178;28;20293;-74
2021/08/03 01:32:33;;;;;;;5.07;3.50;;;;;;;11.81;100.00;100587.88;5001916;28;20646;-73
2021/08/03 01:35:01;;;;;;;3.90;3.13;;;;;;;11.74;100.00;100592.41;5019238;28;20732;-74
2021/08/03 01:37:32;;;;;;;5.17;3.83;;;;;;;11.71;100.00;100600.38;5017556;28;20319;-74
2021/08/03 01:40:05;;;;;;;5.13;3.70;;;;;;;11.86;100.00;100593.78;5004727;28;20204;-74
2021/08/03 01:42:32;;;;;;;3.43;3.07;;;;;;;11.86;100.00;100600.78;4999453;28;20243;-72
2021/08/03 01:45:02;;;;;;;5.30;3.30;;;;;;;11.78;100.00;100597.56;5019028;28;20201;-74
2021/08/03 01:47:31;;;;;;;5.60;3.60;;;;;;;11.87;100.00;100592.91;5019793;28;20335;-74
2021/08/03 01:50:01;;;;;;;5.17;3.53;;;;;;;11.83;100.00;100593.88;5016765;28;20196;-74
2021/08/03 01:52:33;;;;;;;5.73;3.97;;;;;;;11.89;100.00;100604.16;5008031;28;20231;-74
2021/08/03 01:55:04;;;;;;;5.27;3.80;;;;;;;11.88;100.00;100602.44;5023158;28;20247;-74
2021/08/03 01:57:40;;;;;;;8.53;3.60;;;;;;;11.89;100.00;100603.28;5021064;28;20196;-71
2021/08/03 02:00:14;;;;;;;5.97;4.33;;;;;;;11.80;100.00;100596.59;5004532;28;20211;-73
2021/08/03 02:02:45;;;;;;;5.60;3.83;;;;;;;11.85;100.00;100604.28;5021215;28;20224;-74
2021/08/03 02:05:14;;;;;;;5.17;3.60;;;;;;;11.83;100.00;100606.09;5020838;28;20231;-74
2021/08/03 02:07:51;;;;;;;4.47;3.90;;;;;;;11.75;100.00;100609.81;4999353;28;20494;-74
2021/08/03 02:10:23;;;;;;;6.43;3.73;;;;;;;11.86;100.00;100604.25;5005864;28;20282;-74
2021/08/03 02:12:50;;;;;;;5.43;4.00;;;;;;;12.08;100.00;100612.28;5024637;28;20316;-74
2021/08/03 02:15:19;;;;;;;5.27;4.10;;;;;;;12.04;100.00;100613.28;5001151;28;20563;-74
2021/08/03 02:17:47;;;;;;;5.17;3.97;;;;;;;12.01;100.00;100617.75;5019576;28;20201;-74
2021/08/03 02:20:25;;;;;;;5.23;3.80;;;;;;;12.08;100.00;100617.53;5006637;28;20206;-73
2021/08/03 02:22:57;;;;;;;5.63;4.47;;;;;;;12.06;100.00;100627.13;5001064;28;20286;-75
2021/08/03 02:25:27;;;;;;;5.70;4.20;;;;;;;12.19;100.00;100619.78;5005451;28;20262;-72
2021/08/03 02:27:55;;;;;;;5.93;3.87;;;;;;;12.05;100.00;100632.44;5018985;28;20273;-74
2021/08/03 02:30:25;;;;;;;5.23;3.97;;;;;;;12.22;100.00;100627.50;5020096;28;20212;-73
2021/08/03 02:32:59;;;;;;;4.67;3.47;;;;;;;12.35;100.00;100637.53;5018493;28;20230;-74
2021/08/03 02:35:33;;;;;;;4.37;3.53;;;;;;;12.27;100.00;100632.59;5025947;28;20224;-74
2021/08/03 02:38:02;;;;;;;7.10;3.93;;;;;;;12.32;100.00;100636.75;5002556;28;20205;-74
2021/08/03 02:40:31;;;;;;;5.33;4.17;;;;;;;12.29;100.00;100634.25;5017166;28;20204;-73
2021/08/03 02:43:05;;;;;;;5.53;3.90;;;;;;;12.26;100.00;100633.47;4998860;28;20282;-74
2021/08/03 02:45:33;;;;;;;5.07;3.77;;;;;;;12.36;100.00;100624.44;5016751;28;20236;-74
2021/08/03 02:48:10;;;;;;;5.23;3.87;;;;;;;12.29;100.00;100636.88;5023754;28;20201;-74
2021/08/03 02:50:38;;;;;;;4.17;3.43;;;;;;;12.38;100.00;100633.06;5019400;28;20207;-73
2021/08/03 02:53:09;;;;;;;4.00;3.47;;;;;;;12.37;100.00;100627.91;5021394;28;20231;-74
2021/08/03 02:55:42;;;;;;;7.53;3.90;;;;;;;12.48;100.00;100626.63;5005514;28;20220;-74
2021/08/03 02:58:15;;;;;;;5.00;3.70;;;;;;;12.49;100.00;100628.34;5017943;28;20203;-74
2021/08/03 03:00:47;;;;;;;4.87;3.97;;;;;;;12.44;100.00;100637.25;5019971;28;20204;-74
2021/08/03 03:03:18;;;;;;;5.47;3.83;;;;;;;12.44;100.00;100639.88;5002878;28;21169;-74
2021/08/03 03:05:49;;;;;;;4.47;3.50;;;;;;;12.62;100.00;100636.63;5001455;28;21065;-74
2021/08/03 03:08:19;;;;;;;4.63;3.70;;;;;;;12.70;100.00;100636.38;5016531;28;20207;-73
2021/08/03 03:10:52;;;;;;;5.00;3.77;;;;;;;12.65;100.00;100633.91;5018297;28;20227;-74
2021/08/03 03:13:23;;;;;;;4.70;3.67;;;;;;;12.69;100.00;100638.13;5022122;28;20332;-74
2021/08/03 03:15:52;;;;;;;4.83;3.60;;;;;;;12.75;100.00;100631.84;5001746;28;20239;-74
2021/08/03 03:18:21;;;;;;;7.07;3.77;;;;;;;12.78;100.00;100633.47;5022325;28;20282;-74
2021/08/03 03:20:48;;;;;;;4.20;3.43;;;;;;;12.84;100.00;100633.25;5003312;28;20639;-74
2021/08/03 03:23:18;;;;;;;4.67;3.40;;;;;;;13.00;100.00;100629.19;5003341;28;20221;-74
2021/08/03 03:25:49;;;;;;;5.40;3.90;;;;;;;13.01;100.00;100625.66;5002529;28;20216;-74
2021/08/03 03:28:21;;;;;;;4.77;3.93;;;;;;;12.99;100.00;100631.88;5000462;28;20222;-72
2021/08/03 03:30:49;;;;;;;3.83;3.40;;;;;;;12.93;100.00;100629.44;5021635;28;20618;-74
2021/08/03 03:33:18;;;;;;;4.63;3.60;;;;;;;12.86;100.00;100632.31;5002434;28;20227;-73
2021/08/03 03:35:48;;;;;;;4.37;3.57;;;;;;;12.88;100.00;100630.47;5002865;28;20295;-73
2021/08/03 03:38:18;;;;;;;4.10;3.40;;;;;;;12.94;100.00;100637.25;5001003;28;21330;-73
2021/08/03 03:40:48;;;;;;;5.13;3.27;;;;;;;12.99;100.00;100626.63;5023612;28;21244;-74
2021/08/03 03:43:17;;;;;;;4.20;3.60;;;;;;;12.97;100.00;100624.06;5001010;28;20909;-74
2021/08/03 03:45:47;;;;;;;5.70;3.30;;;;;;;12.94;100.00;100631.19;5003151;28;20670;-74
2021/08/03 03:48:20;;;;;;;4.60;3.30;;;;;;;13.07;100.00;100629.84;5002178;28;20450;-73
2021/08/03 03:50:49;;;;;;;4.43;3.50;;;;;;;13.08;100.00;100623.66;4996406;28;20202;-74
2021/08/03 03:53:21;;;;;;;6.30;3.87;;;;;;;13.10;100.00;100627.09;5015754;28;20265;-74
2021/08/03 03:55:50;;;;;;;5.37;3.50;;;;;;;13.17;100.00;100627.72;5019160;28;20747;-74
2021/08/03 03:58:19;;;;;;;5.50;3.87;;;;;;;13.11;100.00;100627.97;5016562;28;20216;-75
2021/08/03 04:00:46;;;;;;;5.27;3.80;;;;;;;13.13;100.00;100626.97;5003148;28;20772;-74
2021/08/03 04:03:17;;;;;;;4.27;3.50;;;;;;;13.13;100.00;100626.97;5006111;28;20221;-74
2021/08/03 04:05:47;;;;;;;4.80;3.63;;;;;;;13.14;100.00;100631.31;5005018;28;20207;-74
2021/08/03 04:08:14;;;;;;;6.33;3.70;;;;;;;13.21;100.00;100634.56;5025725;28;21786;-74
2021/08/03 04:10:42;;;;;;;4.87;3.37;;;;;;;13.32;100.00;100649.91;5020450;28;20205;-72
2021/08/03 04:13:11;;;;;;;5.87;4.13;;;;;;;13.25;100.00;100642.22;5009202;28;20306;-74
2021/08/03 04:15:38;;;;;;;4.23;3.63;;;;;;;13.27;100.00;100637.78;5003878;28;20222;-74
2021/08/03 04:18:06;;;;;;;4.57;3.70;;;;;;;13.32;100.00;100645.53;5005568;28;20194;-74
2021/08/03 04:20:35;;;;;;;4.67;3.77;;;;;;;13.41;100.00;100631.22;5026135;28;20283;-75
2021/08/03 04:23:02;;;;;;;5.47;4.00;;;;;;;13.48;100.00;100645.78;5017462;28;20322;-73
2021/08/03 04:25:29;;;;;;;5.40;4.10;;;;;;;13.56;100.00;100642.88;5023948;28;20205;-73
2021/08/03 04:27:56;;;;;;;5.33;4.17;;;;;;;13.52;100.00;100646.53;5026581;28;20232;-74
2021/08/03 04:30:22;;;;;;;7.03;4.20;;;;;;;13.52;100.00;100642.13;5023706;28;20253;-74
2021/08/03 04:32:49;;;;;;;6.23;4.10;;;;;;;13.58;100.00;100647.16;5022332;28;20717;-75
2021/08/03 04:35:15;;;;;;;5.70;4.00;;;;;;;13.59;100.00;100643.59;5024269;28;20223;-74
2021/08/03 04:37:43;;;;;;;6.40;4.07;;;;;;;13.61;100.00;100647.03;5025624;28;20212;-75
2021/08/03 04:40:13;;;;;;;5.30;4.10;;;;;;;13.67;100.00;100645.94;5020774;28;20591;-73
2021/08/03 04:42:39;;;;;;;6.03;4.13;;;;;;;13.73;100.00;100650.09;5021577;28;20242;-73
2021/08/03 04:45:08;;;;;;;6.50;4.33;;;;;;;13.82;100.00;100649.72;5018787;28;20212;-74
2021/08/03 04:47:34;;;;;;;5.00;4.40;;;;;;;13.89;100.00;100643.31;5021441;28;20218;-74
2021/08/03 04:50:00;;;;;;;6.30;4.03;;;;;;;13.93;100.00;100647.56;5020359;28;20592;-73
2021/08/03 04:52:27;;;;;;;5.33;4.10;;;;;;;13.88;100.00;100656.50;5018901;28;20562;-74
2021/08/03 04:54:53;;;;;;;4.73;3.90;;;;;;;13.92;100.00;100652.84;5022739;28;20215;-74
2021/08/03 04:57:21;;;;;;;4.80;3.87;;;;;;;13.97;100.00;100653.53;5023443;28;20773;-75
2021/08/03 04:59:47;;;;;;;5.90;4.47;;;;;;;14.06;100.00;100654.94;5022680;28;20554;-74
2021/08/03 05:02:14;;;;;;;5.73;4.17;;;;;;;14.06;100.00;100653.16;5022057;28;20237;-73
2021/08/03 05:04:40;;;;;;;6.33;4.37;;;;;;;14.07;100.00;100654.00;5026053;28;20223;-74
2021/08/03 05:07:07;;;;;;;6.00;4.57;;;;;;;14.06;100.00;100657.56;5014832;28;20209;-74
2021/08/03 05:09:33;;;;;;;4.93;4.20;;;;;;;14.11;100.00;100655.59;5019670;28;20205;-74
2021/08/03 05:11:59;;;;;;;5.10;3.73;;;;;;;14.12;100.00;100662.53;5020840;28;20235;-75
2021/08/03 05:14:27;;;;;;;5.97;4.13;;;;;;;14.15;100.00;100665.88;5018750;28;20613;-75
2021/08/03 05:16:53;;;;;;;5.43;4.10;;;;;;;14.11;100.00;100660.84;5018218;28;20288;-74
2021/08/03 05:19:20;;;;;;;4.97;4.13;;;;;;;14.15;100.00;100668.50;5021608;28;20240;-72
2021/08/03 05:21:47;;;;;;;5.27;4.27;;;;;;;14.10;100.00;100678.31;5024605;28;20234;-72
2021/08/03 05:24:13;;;;;;;4.23;3.73;;;;;;;14.10;100.00;100694.06;5020612;28;20210;-74
2021/08/03 05:26:40;;;;;;;5.87;4.23;;;;;;;14.07;100.00;100698.56;5018506;28;20208;-73
2021/08/03 05:29:06;;;;;;;5.23;4.00;;;;;;;13.99;100.00;100691.00;5021121;28;20229;-73
2021/08/03 05:31:34;;;;;;;4.10;3.63;;;;;;;14.06;100.00;100694.25;4997258;28;20352;-73
2021/08/03 05:34:01;;;;;;;6.17;3.90;;;;;;;14.11;100.00;100694.94;5024569;28;20208;-73
2021/08/03 05:36:28;;;;;;;6.27;4.40;;;;;;;14.10;100.00;100703.69;4996434;28;20235;-73
2021/08/03 05:38:54;;;;;;;5.73;3.83;;;;;;;14.12;100.00;100692.22;5018269;28;20229;-72
2021/08/03 05:41:20;;;;;;;5.57;3.93;;;;;;;14.14;100.00;100684.28;5019892;28;20231;-73
2021/08/03 05:43:47;;;;;;;6.60;4.33;;;;;;;14.17;100.00;100684.19;5022655;28;20214;-73
2021/08/03 05:46:13;;;;;;;7.13;4.13;;;;;;;14.26;100.00;100683.78;5022822;28;20216;-73
2021/08/03 05:48:41;;;;;;;5.90;4.53;;;;;;;14.25;100.00;100682.09;5017931;28;20505;-73
2021/08/03 05:51:07;;;;;;;3.90;3.50;;;;;;;14.16;100.00;100685.13;5019072;28;20203;-73
2021/08/03 05:53:34;;;;;;;3.77;3.37;;;;;;;14.22;100.00;100681.38;5020320;28;20215;-72
2021/08/03 05:56:01;;;;;;;3.77;3.13;;;;;;;14.26;100.00;100681.19;5020489;28;20220;-73
2021/08/03 05:58:27;;;;;;;4.20;3.30;;;;;;;14.23;100.00;100685.69;5018101;28;20201;-73
2021/08/03 06:00:53;;;;;;;5.50;3.33;;;;;;;14.27;100.00;100682.91;5025802;28;20222;-73
2021/08/03 06:03:20;;;;;;;4.20;3.67;;;;;;;14.33;100.00;100685.25;5001269;28;20818;-72
2021/08/03 06:05:48;;;;;;;5.63;3.53;;;;;;;14.36;100.00;100682.50;5020614;28;20593;-73
2021/08/03 06:08:15;;;;;;;5.43;3.37;;;;;;;14.43;100.00;100682.28;5018112;28;20210;-72
2021/08/03 06:10:45;;;;;;;4.87;3.37;;;;;;;14.38;100.00;100680.69;5022932;28;20430;-73
2021/08/03 06:13:13;;;;;;;5.60;3.50;;;;;;;14.45;100.00;100677.81;5017940;28;20237;-74
2021/08/03 06:15:42;;;;;;;3.00;2.73;;;;;;;14.48;100.00;100675.06;5015479;28;20699;-73
2021/08/03 06:18:13;;;;;;;5.60;3.13;;;;;;;14.51;100.00;100681.03;5020263;28;20193;-72
2021/08/03 06:20:40;;;;;;;4.30;3.23;;;;;;;14.53;100.00;100680.97;5020817;28;20232;-72
2021/08/03 06:23:11;;;;;;;3.73;3.20;;;;;;;14.46;100.00;100680.38;5020928;28;20222;-74
2021/08/03 06:25:39;;;;;;;4.17;3.13;;;;;;;14.49;100.00;100692.50;5019944;28;20203;-73
2021/08/03 06:28:07;;;;;;;3.93;3.30;;;;;;;14.48;100.00;100689.03;5018014;28;20205;-72
2021/08/03 06:30:35;;;;;;;7.77;3.30;;;;;;;14.47;100.00;100689.94;5014821;28;20208;-72
2021/08/03 06:33:02;;;;;;;6.80;3.77;;;;;;;14.50;100.00;100694.22;5018491;28;20225;-73
2021/08/03 06:35:29;;;;;;;3.47;3.10;;;;;;;14.49;100.00;100688.13;5017682;28;20221;-73
2021/08/03 06:37:55;;;;;;;3.43;3.13;;;;;;;14.42;100.00;100689.28;5019243;28;20200;-73
2021/08/03 06:40:23;;;;;;;3.37;2.90;;;;;;;14.53;100.00;100687.06;5021527;28;20220;-72
2021/08/03 06:42:59;;;;;;;3.90;2.90;;;;;;;14.58;100.00;100702.63;5017721;28;20721;-73
2021/08/03 06:45:29;;;;;;;4.57;2.77;;;;;;;14.55;100.00;100689.63;5017920;28;20198;-72
2021/08/03 06:48:03;;;;;;;4.17;3.03;;;;;;;14.52;100.00;100679.25;5022283;28;20576;-73
2021/08/03 06:50:31;;;;;;;5.73;2.60;;;;;;;14.47;100.00;100695.19;5017658;28;20297;-73
2021/08/03 06:52:58;;;;;;;2.53;2.00;;;;;;;14.36;100.00;100689.53;5020942;28;20231;-73
2021/08/03 06:55:29;;;;;;;2.63;2.43;;;;;;;14.34;100.00;100675.63;5019285;28;20437;-73
2021/08/03 06:58:01;;;;;;;2.90;2.20;;;;;;;14.25;100.00;100679.50;5022560;28;20208;-73
2021/08/03 07:00:31;;;;;;;2.80;2.00;;;;;;;14.29;100.00;100680.22;5015250;28;20200;-73
2021/08/03 07:02:59;;;;;;;2.93;1.90;;;;;;;14.41;100.00;100686.75;5019796;28;20526;-73
2021/08/03 07:05:28;;;;;;;2.23;2.00;;;;;;;14.51;100.00;100672.28;4998459;28;20208;-71
2021/08/03 07:07:58;;;;;;;2.87;2.57;;;;;;;14.63;100.00;100673.59;5015927;28;20205;-74
2021/08/03 07:10:24;;;;;;;2.73;2.20;;;;;;;14.81;100.00;100670.19;5016268;28;20208;-73
2021/08/03 07:12:54;;;;;;;3.57;2.57;;;;;;;14.98;100.00;100684.34;5016680;28;20228;-73
2021/08/03 07:15:22;;;;;;;3.10;2.27;;;;;;;15.02;100.00;100694.69;5020653;28;20218;-73
2021/08/03 07:17:49;;;;;;;3.40;1.90;;;;;;;14.95;100.00;100696.72;5020573;28;20207;-74
2021/08/03 07:20:16;;;;;;;1.63;1.50;;;;;;;15.07;100.00;100697.06;5019626;28;20205;-73
2021/08/03 07:22:43;;;;;;;3.17;2.00;;;;;;;15.27;100.00;100686.56;5022333;28;20237;-74
2021/08/03 07:25:11;;;;;;;3.07;1.83;;;;;;;15.43;100.00;100691.13;5018072;28;20199;-74
2021/08/03 07:27:37;;;;;;;1.93;1.73;;;;;;;15.70;100.00;100691.63;5018586;28;20209;-71
2021/08/03 07:30:06;;;;;;;4.67;2.30;;;;;;;16.05;100.00;100689.16;5022399;28;20233;-73
2021/08/03 07:32:34;;;;;;;4.20;1.67;;;;;;;16.14;99.66;100693.94;5016665;28;20230;-74
2021/08/03 07:35:01;;;;;;;3.63;1.93;;;;;;;16.09;95.94;100690.69;5016819;28;20215;-73
2021/08/03 07:37:30;;;;;;;2.60;2.00;;;;;;;16.13;95.94;100694.03;5015708;28;20203;-74
2021/08/03 07:39:57;;;;;;;3.03;1.90;;;;;;;16.35;97.50;100689.44;5021140;28;20523;-73
2021/08/03 07:42:23;;;;;;;3.33;2.00;;;;;;;16.55;98.19;100693.72;4999302;28;20251;-73
2021/08/03 07:44:50;;;;;;;3.73;1.90;;;;;;;16.63;96.08;100685.44;5021237;28;20196;-73
2021/08/03 07:47:17;;;;;;;4.10;2.13;;;;;;;16.75;97.06;100683.97;5015121;28;20424;-73
2021/08/03 07:49:46;;;;;;;2.30;2.10;;;;;;;16.78;94.88;100689.03;5022732;28;20192;-72
2021/08/03 07:52:12;;;;;;;4.50;1.90;;;;;;;16.93;95.34;100687.47;5014004;28;20647;-71
2021/08/03 07:54:38;;;;;;;3.77;2.30;;;;;;;17.07;94.42;100694.66;5019615;28;20622;-72
2021/08/03 07:57:05;;;;;;;4.30;2.33;;;;;;;17.33;97.39;100682.75;5020049;28;20224;-72
2021/08/03 07:59:31;;;;;;;3.13;2.20;;;;;;;17.47;92.90;100689.91;5020237;28;20579;-72
2021/08/03 08:01:58;;;;;;;3.20;2.07;;;;;;;17.65;92.07;100695.97;5019750;28;20227;-73
2021/08/03 08:04:26;;;;;;;2.20;1.73;;;;;;;17.78;85.80;100689.94;4999003;28;20216;-72
2021/08/03 08:06:52;;;;;;;1.70;1.53;;;;;;;17.98;85.87;100694.13;5021534;28;20196;-72
2021/08/03 08:09:20;;;;;;;2.70;1.60;;;;;;;18.15;88.61;100695.81;5016046;28;20205;-72
2021/08/03 08:11:46;;;;;;;2.13;1.30;;;;;;;18.33;83.70;100701.00;5013265;28;20239;-73
2021/08/03 08:14:13;;;;;;;2.13;1.30;;;;;;;18.40;83.59;100704.09;5020100;28;20807;-73
2021/08/03 08:16:39;;;;;;;1.57;1.20;;;;;;;18.55;75.75;100714.63;5016694;28;20220;-72
2021/08/03 08:19:06;;;;;;;1.23;1.00;;;;;;;18.67;71.93;100720.13;5017650;28;20557;-73
2021/08/03 08:21:34;;;;;;;1.30;0.97;;;;;;;18.84;73.42;100719.19;5018809;28;20619;-73
2021/08/03 08:24:00;;;;;;;2.80;1.30;;;;;;;18.93;72.98;100713.34;5017536;28;20212;-73
2021/08/03 08:26:27;;;;;;;2.00;1.17;;;;;;;19.02;73.15;100714.59;5021304;28;20203;-72
2021/08/03 08:28:53;;;;;;;1.87;1.07;;;;;;;18.88;70.27;100712.78;5000214;28;20213;-73
2021/08/03 08:31:20;;;;;;;2.70;1.20;;;;;;;18.78;72.44;100701.88;5019734;28;20224;-73
2021/08/03 08:33:46;;;;;;;3.17;1.00;;;;;;;18.75;74.93;100691.50;5013948;28;20215;-73
2021/08/03 08:36:12;;;;;;;1.23;0.90;;;;;;;18.90;75.82;100697.69;5019085;28;20230;-72
2021/08/03 08:38:40;;;;;;;2.43;1.17;;;;;;;19.05;73.25;100696.75;5018726;28;20222;-73
2021/08/03 08:41:08;;;;;;;1.30;1.07;;;;;;;19.02;75.09;100694.31;5022986;28;20215;-73
2021/08/03 08:43:34;;;;;;;1.50;1.10;;;;;;;18.93;75.18;100684.28;5018717;28;20211;-73
2021/08/03 08:46:01;;;;;;;2.73;1.30;;;;;;;18.99;76.27;100688.34;5023080;28;20195;-73
2021/08/03 08:48:29;;;;;;;1.20;1.10;;;;;;;19.10;72.79;100697.34;5020840;28;20200;-73
2021/08/03 08:50:55;;;;;;;1.90;1.30;;;;;;;19.00;70.03;100693.56;5023675;28;20229;-73
2021/08/03 08:53:26;;;;;;;1.40;1.20;;;;;;;19.17;71.73;100699.59;5022710;28;20205;-73
2021/08/03 08:55:54;;;;;;;1.33;1.10;;;;;;;19.27;67.78;100695.44;5022785;28;20261;-73
2021/08/03 08:58:20;;;;;;;2.90;1.20;;;;;;;19.50;71.53;100680.78;5002897;28;20208;-73
2021/08/03 09:00:46;;;;;;;2.70;1.13;;;;;;;19.59;69.49;100690.78;5015370;28;20576;-71
2021/08/03 09:03:14;;;;;;;1.53;1.30;;;;;;;19.41;65.87;100697.25;5018708;28;20331;-73
2021/08/03 09:05:40;;;;;;;1.50;1.10;;;;;;;19.27;66.36;100695.44;5021854;28;20611;-73
2021/08/03 09:08:09;;;;;;;1.40;1.30;;;;;;;19.48;70.08;100686.19;5018057;28;20212;-73
2021/08/03 09:10:39;;;;;;;4.63;1.30;;;;;;;19.51;69.26;100682.50;5022429;28;20460;-73
2021/08/03 09:13:10;;;;;;;3.57;1.30;;;;;;;19.48;67.74;100691.47;5014161;28;20240;-73
2021/08/03 09:15:39;;;;;;;3.03;1.33;;;;;;;19.57;66.74;100691.84;5019015;28;20299;-73
2021/08/03 09:18:12;;;;;;;1.97;1.40;;;;;;;19.68;67.44;100687.59;5022599;28;20199;-73
2021/08/03 09:20:39;;;;;;;2.43;1.57;;;;;;;19.86;69.89;100682.94;4998933;28;20997;-73
2021/08/03 09:23:06;;;;;;;2.33;1.17;;;;;;;20.05;71.28;100684.38;5017157;28;20577;-73
2021/08/03 09:25:32;;;;;;;1.80;1.50;;;;;;;20.24;70.42;100678.75;5021287;28;20207;-74
2021/08/03 09:28:02;;;;;;;1.97;1.20;;;;;;;20.38;68.70;100685.78;5023050;28;20196;-73
2021/08/03 09:30:31;;;;;;;2.10;1.53;;;;;;;20.53;68.41;100690.06;5015513;28;20255;-73
2021/08/03 09:32:59;;;;;;;2.70;1.43;;;;;;;20.60;68.37;100696.63;5018519;28;20227;-73
2021/08/03 09:35:27;;;;;;;1.97;1.60;;;;;;;20.93;69.62;100686.53;4998780;28;20216;-72
2021/08/03 09:37:55;;;;;;;2.63;1.50;;;;;;;21.04;64.36;100691.13;5016079;28;20885;-73
2021/08/03 09:40:23;;;;;;;2.10;1.60;;;;;;;21.10;65.10;100698.63;5018765;28;20197;-72
2021/08/03 09:43:01;;;;;;;2.17;1.80;;;;;;;21.18;63.05;100701.59;5024197;28;20223;-73
2021/08/03 09:45:31;;;;;;;1.80;1.50;;;;;;;21.16;59.99;100706.16;5020038;28;20204;-72
2021/08/03 09:48:08;;;;;;;2.70;1.60;;;;;;;21.01;61.00;100697.47;5019591;28;20269;-73
2021/08/03 09:50:57;;;;;;;2.47;1.77;;;;;;;21.16;62.42;100695.56;5012772;28;20224;-73
2021/08/03 09:53:42;;;;;;;3.13;1.87;;;;;;;21.27;63.73;100686.88;5021089;28;20214;-72
2021/08/03 09:56:10;;;;;;;1.90;1.70;;;;;;;21.37;64.39;100686.09;5021447;28;20228;-74
2021/08/03 09:58:50;;;;;;;3.33;1.80;;;;;;;21.32;62.06;100690.03;5015073;28;20210;-71
2021/08/03 10:01:29;;;;;;;2.03;1.67;;;;;;;21.52;62.61;100686.84;5021350;28;20259;-72
2021/08/03 10:03:59;;;;;;;4.40;2.10;;;;;;;21.58;64.89;100679.41;5019620;28;20298;-74
2021/08/03 10:06:25;;;;;;;6.00;2.80;;;;;;;21.90;66.65;100680.59;5021060;28;20212;-73
2021/08/03 10:08:54;;;;;;;4.93;2.13;;;;;;;22.02;65.26;100673.53;5017343;28;20200;-73
2021/08/03 10:11:21;;;;;;;3.80;1.70;;;;;;;21.98;60.02;100682.66;5020077;28;20216;-73
2021/08/03 10:13:48;;;;;;;6.80;2.73;;;;;;;21.92;60.88;100681.31;5019780;28;20192;-73
2021/08/03 10:16:16;;;;;;;2.60;1.90;;;;;;;22.06;62.08;100672.34;5019837;28;20215;-73
2021/08/03 10:18:46;;;;;;;2.40;1.63;;;;;;;22.06;63.18;100664.38;5017130;28;20212;-73
2021/08/03 10:21:21;;;;;;;2.60;1.80;;;;;;;22.08;63.25;100670.41;5021368;28;20694;-73
2021/08/03 10:23:48;;;;;;;2.90;1.70;;;;;;;21.96;62.91;100668.66;5021946;28;20199;-73
2021/08/03 10:26:16;;;;;;;1.90;1.70;;;;;;;21.76;62.54;100667.47;5000210;28;20208;-74
2021/08/03 10:28:42;;;;;;;2.97;1.63;;;;;;;21.71;62.46;100664.31;5020718;28;20228;-73
2021/08/03 10:31:37;;;;;;;2.00;1.63;;;;;;;21.72;64.58;100656.25;5020486;28;20227;-73
2021/08/03 10:34:06;;;;;;;2.07;1.70;;;;;;;21.90;62.37;100661.16;5021827;28;20204;-73
2021/08/03 10:36:47;;;;;;;1.93;1.70;;;;;;;22.04;59.24;100665.44;5017908;28;20708;-72
2021/08/03 10:39:14;;;;;;;2.13;1.90;;;;;;;22.01;62.86;100647.09;5019892;28;20205;-73
2021/08/03 10:42:08;;;;;;;3.00;1.50;;;;;;;22.31;62.03;100654.63;5014805;28;20232;-73
2021/08/03 10:44:43;;;;;;;3.35;1.60;;;;;;;22.35;59.42;100642.78;5018004;28;20700;-73
2021/08/03 10:47:44;;;;;;;1.95;1.83;;;;;;;22.34;60.25;100648.22;5000269;28;20207;-74
2021/08/03 10:50:14;;;;;;;2.25;1.80;;;;;;;22.02;63.01;100643.47;5012789;28;20739;-73
2021/08/03 10:52:54;;;;;;;2.42;1.90;;;;;;;21.86;61.93;100647.28;4998166;28;20231;-73
2021/08/03 10:55:38;;;;;;;2.60;1.88;;;;;;;21.82;61.80;100653.75;5021802;28;20203;-73
2021/08/03 10:58:24;;;;;;;2.45;1.88;;;;;;;21.68;62.44;100638.81;5017109;28;20285;-73
2021/08/03 11:00:53;;;;;;;3.10;1.90;;;;;;;21.63;59.41;100640.97;4996662;28;20209;-73
2021/08/03 11:03:45;;;;;;;1.90;1.63;;;;;;;21.63;62.22;100630.34;5004004;28;20307;-73
2021/08/03 11:06:38;;;;;;;1.80;1.70;;;;;;;21.54;59.99;100636.34;5012747;28;20700;-73
2021/08/03 11:09:34;;;;;;;1.60;1.50;;;;;;;21.33;62.69;100639.53;5016355;28;20199;-74
2021/08/03 11:12:40;;;;;;;3.30;1.70;;;;;;;21.21;62.90;100629.78;5019870;28;20612;-73
2021/08/03 11:15:38;;;;;;;1.98;1.63;;;;;;;21.07;64.73;100624.63;5017036;28;20882;-74
2021/08/03 11:18:08;;;;;;;2.83;1.60;;;;;;;21.05;63.42;100622.06;5005007;28;20683;-73
2021/08/03 11:21:09;;;;;;;2.27;1.53;;;;;;;21.11;61.77;100626.97;5017938;28;20210;-73
2021/08/03 11:24:04;;;;;;;3.20;1.97;;;;;;;21.09;61.07;100620.06;5019454;28;20203;-72
2021/08/03 11:26:34;;;;;;;2.47;1.70;;;;;;;21.19;63.87;100621.09;5018083;28;20657;-72
2021/08/03 11:29:05;;;;;;;2.67;1.70;;;;;;;21.30;63.77;100612.38;5017225;28;20698;-74
2021/08/03 11:31:43;;;;;;;2.10;1.83;;;;;;;21.31;61.81;100620.22;5015594;28;20253;-73
2021/08/03 11:34:11;;;;;;;3.10;1.90;;;;;;;21.31;60.66;100624.69;5013111;28;20299;-73